Time;durP1;ratioP1;P1;durP2;ratioP2;P2;SDS_P1;SDS_P2;PMS_P1;PMS_P2;Temp;Humidity;BMP_temperature;BMP_pressure;BME280_temperature;BME280_humidity;BME280_pressure;Samples;Min_cycle;Max_cycle;Signal;HPM_P1;HPM_P2
2023/09/10 00:00:25;;;;;;;12.53;8.83;;;;;;;8.67;61.98;101434.38;1647713;84;21233;-56
2023/09/10 00:03:32;;;;;;;13.43;7.75;;;;;;;8.67;61.97;101438.47;1621571;86;21389;-55
2023/09/10 00:06:38;;;;;;;14.75;7.37;;;;;;;8.64;61.96;101441.47;1647821;86;21487;-55
2023/09/10 00:09:45;;;;;;;11.28;6.33;;;;;;;8.64;62.03;101435.49;1655012;83;21396;-55
2023/09/10 00:12:51;;;;;;;14.65;7.87;;;;;;;8.66;62.12;101433.98;1623368;82;21248;-56
2023/09/10 00:15:59;;;;;;;12.82;7.17;;;;;;;8.65;62.19;101440.45;1617134;87;21299;-57
2023/09/10 00:19:05;;;;;;;10.98;7.20;;;;;;;8.63;62.21;101441.09;1617198;83;21268;-57
2023/09/10 00:22:11;;;;;;;15.45;7.75;;;;;;;8.64;62.31;101449.14;1612299;85;21251;-56
2023/09/10 00:25:17;;;;;;;9.55;6.47;;;;;;;8.63;62.37;101443.33;1642263;83;21290;-55
2023/09/10 00:28:23;;;;;;;10.63;7.00;;;;;;;8.66;62.44;101447.63;1632657;82;21817;-55
2023/09/10 00:31:30;;;;;;;11.05;7.30;;;;;;;8.62;62.38;101447.08;1636110;82;21376;-56
2023/09/10 00:34:37;;;;;;;10.63;6.67;;;;;;;8.58;62.38;101442.00;1640766;84;21384;-55
2023/09/10 00:37:43;;;;;;;12.33;6.03;;;;;;;8.58;62.48;101444.23;1641429;87;21298;-55
2023/09/10 00:40:49;;;;;;;10.90;6.03;;;;;;;8.57;62.56;101451.20;1620330;84;21274;-56
2023/09/10 00:43:57;;;;;;;12.88;6.28;;;;;;;8.56;62.63;101452.21;1649560;82;21440;-55
2023/09/10 00:47:04;;;;;;;9.43;6.30;;;;;;;8.55;62.70;101449.09;1651408;82;21398;-55
2023/09/10 00:50:10;;;;;;;11.30;6.72;;;;;;;8.50;62.61;101452.24;1647069;83;21853;-55
2023/09/10 00:53:17;;;;;;;15.18;7.25;;;;;;;8.43;62.59;101443.37;1647715;83;21737;-55
2023/09/10 00:56:24;;;;;;;12.03;6.78;;;;;;;8.37;62.52;101444.77;1641142;85;21274;-55
2023/09/10 00:59:30;;;;;;;13.60;7.37;;;;;;;8.36;62.68;101450.37;1651767;82;21265;-55
2023/09/10 01:02:36;;;;;;;10.65;6.25;;;;;;;8.37;62.90;101447.50;1645995;82;21404;-55
2023/09/10 01:05:43;;;;;;;12.60;6.75;;;;;;;8.38;63.02;101441.06;1648802;85;21368;-55
2023/09/10 01:08:49;;;;;;;12.60;7.28;;;;;;;8.37;63.01;101441.20;1645302;84;21223;-55
2023/09/10 01:12:02;;;;;;;12.75;6.45;;;;;;;8.31;62.86;101447.21;1647541;84;21510;-55
2023/09/10 01:15:34;;;;;;;11.65;6.42;;;;;;;8.21;62.70;101441.67;1646215;83;21267;-55
2023/09/10 01:18:57;;;;;;;11.90;6.53;;;;;;;8.15;62.75;101441.34;1648060;85;21387;-55
2023/09/10 01:22:10;;;;;;;13.00;6.30;;;;;;;8.11;62.82;101442.59;1649308;85;21384;-55
2023/09/10 01:25:15;;;;;;;10.63;6.55;;;;;;;8.05;62.83;101437.19;1654128;81;21388;-55
2023/09/10 01:28:21;;;;;;;10.03;6.53;;;;;;;8.03;62.96;101434.21;1649908;86;21237;-56
2023/09/10 01:31:27;;;;;;;13.78;6.67;;;;;;;8.01;63.09;101431.62;1633573;83;21292;-56
2023/09/10 01:34:36;;;;;;;11.15;5.97;;;;;;;8.04;63.23;101431.88;1649515;86;21368;-56
2023/09/10 01:38:09;;;;;;;9.88;6.30;;;;;;;8.02;63.25;101438.82;1601251;86;21247;-56
2023/09/10 01:41:26;;;;;;;11.85;7.25;;;;;;;7.98;63.21;101435.98;1645099;83;21318;-55
2023/09/10 01:44:31;;;;;;;11.95;6.10;;;;;;;7.99;63.40;101439.58;1643817;85;21269;-56
2023/09/10 01:47:39;;;;;;;10.60;6.05;;;;;;;8.01;63.57;101437.07;1639473;84;21948;-55
2023/09/10 01:50:46;;;;;;;12.33;5.83;;;;;;;8.00;63.58;101439.45;1646112;85;21241;-56
2023/09/10 01:53:52;;;;;;;12.88;6.50;;;;;;;8.02;63.66;101440.67;1643461;82;21241;-57
2023/09/10 01:56:58;;;;;;;11.08;6.78;;;;;;;8.01;63.61;101448.50;1644357;83;21376;-55
2023/09/10 02:00:07;;;;;;;7.83;5.75;;;;;;;8.01;63.74;101449.86;1647776;85;21448;-55
2023/09/10 02:03:11;;;;;;;19.35;6.80;;;;;;;8.02;63.86;101444.28;1648803;84;22002;-56
2023/09/10 02:06:16;;;;;;;11.63;6.12;;;;;;;8.03;63.93;101439.66;1638265;82;21462;-55
2023/09/10 02:09:22;;;;;;;9.43;5.85;;;;;;;8.04;64.01;101445.50;1640737;86;21245;-56
2023/09/10 02:12:27;;;;;;;8.95;5.60;;;;;;;8.03;63.94;101439.17;1652895;86;21285;-57
2023/09/10 02:15:35;;;;;;;13.08;6.30;;;;;;;7.98;63.79;101440.56;1657546;83;21413;-57
2023/09/10 02:18:40;;;;;;;14.23;5.65;;;;;;;7.91;63.71;101438.89;1645024;81;21755;-57
2023/09/10 02:21:47;;;;;;;11.28;5.92;;;;;;;7.88;63.73;101439.12;1641405;82;21321;-57
2023/09/10 02:24:52;;;;;;;10.38;5.37;;;;;;;7.83;63.81;101445.50;1639112;84;21505;-55
2023/09/10 02:27:57;;;;;;;9.43;5.58;;;;;;;7.85;64.00;101442.65;1633040;83;21269;-56
2023/09/10 02:31:04;;;;;;;8.33;5.15;;;;;;;7.87;64.10;101446.08;1649598;85;21750;-56
2023/09/10 02:34:04;;;;;;;10.70;6.15;;;;;;;7.84;64.09;101447.22;1653508;86;21376;-55
2023/09/10 02:37:10;;;;;;;12.50;5.35;;;;;;;7.79;64.00;101446.75;1640252;82;21407;-56
2023/09/10 02:40:18;;;;;;;9.03;4.97;;;;;;;7.76;64.02;101454.31;1644072;82;21448;-56
2023/09/10 02:43:23;;;;;;;11.45;6.30;;;;;;;7.74;64.14;101460.42;1648101;82;21424;-55
2023/09/10 02:46:29;;;;;;;8.83;5.58;;;;;;;7.75;64.24;101463.50;1649421;82;21384;-55
2023/09/10 02:49:35;;;;;;;14.73;7.75;;;;;;;7.74;64.22;101457.17;1648959;87;21261;-56
2023/09/10 02:52:40;;;;;;;15.18;8.10;;;;;;;7.71;64.21;101455.23;1654240;84;21289;-57
2023/09/10 02:55:48;;;;;;;23.00;11.75;;;;;;;7.67;64.27;101462.80;1649764;85;21376;-55
2023/09/10 02:58:55;;;;;;;19.07;9.03;;;;;;;7.66;64.30;101458.33;1644317;83;21424;-55
2023/09/10 03:02:01;;;;;;;18.55;9.20;;;;;;;7.68;64.45;101463.65;1647484;84;21373;-55
2023/09/10 03:05:08;;;;;;;20.88;9.35;;;;;;;7.69;64.51;101461.31;1652129;83;21381;-56
2023/09/10 03:08:14;;;;;;;24.12;11.55;;;;;;;7.68;64.53;101460.44;1638267;82;21289;-55
2023/09/10 03:11:21;;;;;;;25.48;11.78;;;;;;;7.70;64.59;101463.91;1636216;83;21332;-55
2023/09/10 03:14:27;;;;;;;25.77;12.03;;;;;;;7.71;64.66;101456.61;1649351;84;21508;-58
2023/09/10 03:17:33;;;;;;;27.07;12.03;;;;;;;7.72;64.70;101454.23;1646948;82;21320;-57
2023/09/10 03:20:40;;;;;;;21.90;10.10;;;;;;;7.71;64.66;101457.97;1648569;85;22026;-55
2023/09/10 03:23:46;;;;;;;19.32;9.38;;;;;;;7.70;64.72;101454.85;1642906;84;21238;-55
2023/09/10 03:26:53;;;;;;;18.60;8.93;;;;;;;7.72;64.81;101462.41;1644593;85;21396;-57
2023/09/10 03:30:00;;;;;;;17.12;8.78;;;;;;;7.71;64.82;101452.52;1642730;82;21344;-57
2023/09/10 03:33:05;;;;;;;16.12;7.30;;;;;;;7.71;64.82;101456.61;1637090;85;21413;-56
2023/09/10 03:36:12;;;;;;;14.03;8.53;;;;;;;7.71;64.92;101458.80;1648963;82;21400;-56
2023/09/10 03:39:17;;;;;;;13.18;9.08;;;;;;;7.73;65.04;101458.19;1649580;85;21404;-56
2023/09/10 03:42:24;;;;;;;22.62;11.88;;;;;;;7.72;64.94;101465.13;1648073;84;21372;-57
2023/09/10 03:45:32;;;;;;;27.77;13.28;;;;;;;7.74;65.00;101475.41;1647803;82;21408;-57
2023/09/10 03:48:39;;;;;;;21.30;12.40;;;;;;;7.78;65.16;101472.78;1646584;82;21287;-56
2023/09/10 03:51:46;;;;;;;20.10;12.37;;;;;;;7.83;65.31;101467.80;1647878;85;21245;-56
2023/09/10 03:54:50;;;;;;;19.52;12.65;;;;;;;7.88;65.41;101469.64;1647534;84;21391;-56
2023/09/10 03:57:58;;;;;;;20.25;11.25;;;;;;;7.94;65.47;101469.10;1635583;83;21243;-56
2023/09/10 04:01:04;;;;;;;21.77;12.13;;;;;;;8.00;65.51;101475.38;1647016;82;21257;-55
2023/09/10 04:04:14;;;;;;;19.62;9.25;;;;;;;8.07;65.57;101476.59;1648681;82;21230;-56
2023/09/10 04:07:20;;;;;;;21.97;9.58;;;;;;;8.14;65.66;101477.28;1678518;83;21228;-54
2023/09/10 04:10:27;;;;;;;15.43;8.48;;;;;;;8.21;65.73;101474.89;1685422;85;21382;-55
2023/09/10 04:13:34;;;;;;;14.15;8.20;;;;;;;8.29;65.81;101477.32;1683939;83;21398;-56
2023/09/10 04:16:42;;;;;;;13.83;7.60;;;;;;;8.37;65.92;101473.94;1682626;83;21776;-56
2023/09/10 04:19:49;;;;;;;13.75;7.33;;;;;;;8.47;66.05;101477.56;1681188;85;21397;-56
2023/09/10 04:22:55;;;;;;;15.13;6.90;;;;;;;8.59;66.18;101469.67;1680833;83;21878;-55
2023/09/10 04:26:01;;;;;;;11.68;6.78;;;;;;;8.70;66.31;101475.91;1679863;83;21378;-56
2023/09/10 04:29:07;;;;;;;12.98;6.95;;;;;;;8.82;66.45;101474.80;1678313;83;21247;-55
2023/09/10 04:32:16;;;;;;;11.68;6.70;;;;;;;8.96;66.55;101473.53;1678044;83;21794;-55
2023/09/10 04:35:22;;;;;;;15.10;7.30;;;;;;;9.07;66.59;101477.03;1679196;85;21364;-55
2023/09/10 04:38:28;;;;;;;13.22;6.37;;;;;;;9.20;66.69;101478.14;1682081;84;21374;-55
2023/09/10 04:41:34;;;;;;;11.33;5.58;;;;;;;9.32;66.77;101480.26;1684415;84;21347;-55
2023/09/10 04:44:41;;;;;;;9.75;5.42;;;;;;;9.45;66.85;101474.87;1685835;84;21455;-55
2023/09/10 04:47:50;;;;;;;10.30;4.53;;;;;;;9.60;66.94;101476.19;1685355;84;21377;-55
2023/09/10 04:50:56;;;;;;;6.85;4.45;;;;;;;9.74;67.03;101467.56;1680324;85;21938;-56
2023/09/10 04:54:03;;;;;;;8.38;4.37;;;;;;;9.89;67.14;101468.86;1684943;84;21354;-54
2023/09/10 04:57:10;;;;;;;8.38;4.67;;;;;;;10.05;67.22;101471.00;1683466;83;21246;-58
2023/09/10 05:00:17;;;;;;;8.98;4.30;;;;;;;10.20;67.27;101471.80;1679052;83;21373;-54
2023/09/10 05:03:25;;;;;;;6.30;3.77;;;;;;;10.37;67.34;101474.27;1682649;85;21375;-54
2023/09/10 05:06:32;;;;;;;5.80;4.10;;;;;;;10.53;67.37;101467.66;1681148;85;21349;-53
2023/09/10 05:09:37;;;;;;;6.20;4.08;;;;;;;10.71;67.45;101473.22;1660733;84;21235;-53
2023/09/10 05:12:46;;;;;;;6.37;3.67;;;;;;;10.88;67.50;101471.92;1676328;83;21374;-52
2023/09/10 05:15:57;;;;;;;6.67;3.22;;;;;;;11.05;67.50;101478.48;1674619;85;21346;-52
2023/09/10 05:19:06;;;;;;;5.67;3.30;;;;;;;11.21;67.52;101474.58;1682284;81;21931;-52
2023/09/10 05:22:12;;;;;;;5.17;2.95;;;;;;;11.37;67.52;101476.98;1679425;82;21370;-53
2023/09/10 05:25:18;;;;;;;5.62;3.58;;;;;;;11.54;67.54;101473.92;1681501;82;21338;-52
2023/09/10 05:28:24;;;;;;;4.70;2.90;;;;;;;11.69;67.54;101472.38;1683119;83;21381;-54
2023/09/10 05:31:32;;;;;;;7.53;2.80;;;;;;;11.85;67.52;101465.68;1684853;83;21267;-53
2023/09/10 05:34:38;;;;;;;5.92;2.70;;;;;;;12.01;67.49;101464.45;1681428;83;22352;-53
2023/09/10 05:37:45;;;;;;;8.08;3.50;;;;;;;12.15;67.45;101461.64;1679850;84;21324;-52
2023/09/10 05:40:52;;;;;;;10.08;3.47;;;;;;;12.30;67.42;101465.55;1676827;84;21882;-54
2023/09/10 05:43:59;;;;;;;7.83;3.33;;;;;;;12.44;67.41;101467.70;1680486;82;21855;-53
2023/09/10 05:47:05;;;;;;;5.60;2.60;;;;;;;12.57;67.35;101464.88;1678350;81;21240;-52
2023/09/10 05:50:15;;;;;;;5.20;2.75;;;;;;;12.72;67.31;101469.23;1680231;81;21377;-51
2023/09/10 05:53:22;;;;;;;4.10;2.62;;;;;;;12.85;67.28;101466.41;1677198;82;21402;-54
2023/09/10 05:56:28;;;;;;;7.15;3.33;;;;;;;13.00;67.21;101473.53;1679933;82;21398;-53
2023/09/10 05:59:36;;;;;;;6.83;2.67;;;;;;;13.13;67.13;101469.81;1676135;85;21374;-53
2023/09/10 06:02:43;;;;;;;6.80;2.67;;;;;;;13.25;67.07;101468.50;1669008;83;21374;-54
2023/09/10 06:05:49;;;;;;;6.03;3.12;;;;;;;13.36;67.00;101469.06;1649756;85;21212;-53
2023/09/10 06:08:56;;;;;;;5.97;2.77;;;;;;;13.48;66.92;101471.84;1671293;83;21926;-55
2023/09/10 06:12:03;;;;;;;4.28;2.27;;;;;;;13.63;66.90;101476.67;1674921;83;21366;-54
2023/09/10 06:15:11;;;;;;;8.63;2.45;;;;;;;13.76;66.84;101482.56;1680060;83;21275;-54
2023/09/10 06:18:17;;;;;;;5.92;2.47;;;;;;;13.88;66.77;101484.81;1673732;82;21351;-54
2023/09/10 06:21:24;;;;;;;4.97;2.25;;;;;;;14.02;66.71;101480.00;1680704;83;21436;-54
2023/09/10 06:24:34;;;;;;;4.05;2.27;;;;;;;14.14;66.61;101481.91;1680166;82;21370;-55
2023/09/10 06:27:41;;;;;;;5.55;2.20;;;;;;;14.25;66.52;101483.84;1679739;83;21410;-56
2023/09/10 06:30:47;;;;;;;6.03;2.60;;;;;;;14.38;66.44;101483.31;1678428;84;21408;-54
2023/09/10 06:33:52;;;;;;;8.28;4.45;;;;;;;14.49;66.31;101485.70;1679735;82;21259;-52
2023/09/10 06:37:00;;;;;;;4.20;2.50;;;;;;;14.57;66.09;101486.53;1678166;83;21275;-54
2023/09/10 06:40:05;;;;;;;2.70;1.60;;;;;;;14.65;66.03;101484.31;1677415;82;21235;-55
2023/09/10 06:43:11;;;;;;;3.85;2.02;;;;;;;14.76;65.97;101485.31;1651658;81;21746;-53
2023/09/10 06:46:18;;;;;;;4.15;1.90;;;;;;;14.86;65.85;101491.47;1678766;82;21340;-54
2023/09/10 06:49:26;;;;;;;3.60;1.40;;;;;;;14.97;65.71;101486.95;1679331;82;21797;-54
2023/09/10 06:52:31;;;;;;;2.35;1.70;;;;;;;15.03;65.48;101494.55;1676783;83;21863;-54
2023/09/10 06:55:37;;;;;;;5.42;1.90;;;;;;;15.08;65.34;101493.46;1683112;83;21353;-54
2023/09/10 06:58:44;;;;;;;4.92;1.92;;;;;;;15.10;65.14;101492.78;1679647;83;21400;-54
2023/09/10 07:01:48;;;;;;;4.92;2.33;;;;;;;15.15;65.06;101493.11;1685486;83;21215;-54
2023/09/10 07:04:55;;;;;;;4.92;2.12;;;;;;;15.22;64.97;101482.22;1674239;83;21248;-54
2023/09/10 07:08:04;;;;;;;6.85;2.37;;;;;;;15.33;64.87;101481.83;1675432;85;21299;-55
2023/09/10 07:11:10;;;;;;;3.33;1.98;;;;;;;15.43;64.73;101481.97;1685950;85;21215;-53
2023/09/10 07:14:18;;;;;;;6.62;2.22;;;;;;;15.55;64.64;101479.16;1682740;83;21381;-53
2023/09/10 07:17:25;;;;;;;4.97;2.05;;;;;;;15.71;64.59;101482.34;1672088;85;21397;-52
2023/09/10 07:20:32;;;;;;;3.90;1.50;;;;;;;15.92;64.54;101473.72;1682998;82;21465;-52
2023/09/10 07:23:38;;;;;;;5.60;1.60;;;;;;;16.13;64.35;101481.33;1682636;84;21426;-53
2023/09/10 07:26:47;;;;;;;5.78;1.65;;;;;;;16.28;64.04;101484.47;1685466;85;21369;-53
2023/09/10 07:29:52;;;;;;;2.75;1.72;;;;;;;16.41;63.79;101486.08;1684984;83;21874;-55
2023/09/10 07:32:58;;;;;;;4.05;1.80;;;;;;;16.53;63.58;101474.09;1685844;85;21382;-56
2023/09/10 07:36:05;;;;;;;7.30;1.80;;;;;;;16.67;63.41;101465.47;1682371;83;21354;-51
2023/09/10 07:39:12;;;;;;;5.62;1.70;;;;;;;16.80;63.14;101472.59;1684001;84;21944;-54
2023/09/10 07:42:19;;;;;;;4.28;1.50;;;;;;;16.93;62.94;101473.67;1685635;81;21397;-54
2023/09/10 07:45:27;;;;;;;2.92;1.60;;;;;;;17.05;62.64;101468.49;1649006;83;21231;-54
2023/09/10 07:48:35;;;;;;;4.55;1.60;;;;;;;17.13;62.42;101475.31;1652627;84;21283;-51
2023/09/10 07:51:43;;;;;;;5.83;1.72;;;;;;;17.23;62.28;101482.30;1623615;84;21859;-53
2023/09/10 07:54:50;;;;;;;5.53;2.00;;;;;;;17.32;62.05;101478.88;1650633;85;21849;-54
2023/09/10 07:57:58;;;;;;;5.50;1.98;;;;;;;17.34;61.69;101478.17;1643953;82;21242;-53
2023/09/10 08:01:04;;;;;;;4.55;1.75;;;;;;;17.40;61.58;101471.85;1658071;85;21262;-55
2023/09/10 08:04:11;;;;;;;5.60;2.30;;;;;;;17.47;61.46;101463.98;1659292;85;21409;-51
2023/09/10 08:07:17;;;;;;;6.58;2.30;;;;;;;17.57;61.24;101470.59;1634828;86;21290;-53
2023/09/10 08:10:26;;;;;;;2.15;1.55;;;;;;;17.61;61.00;101467.79;1654954;85;21385;-53
2023/09/10 08:13:32;;;;;;;7.60;2.02;;;;;;;17.67;60.83;101461.46;1653852;82;21266;-57
2023/09/10 08:16:38;;;;;;;3.98;2.20;;;;;;;17.79;60.76;101459.36;1682199;82;21264;-54
2023/09/10 08:19:45;;;;;;;9.60;5.67;;;;;;;17.88;60.52;101462.36;1665958;83;21787;-55
2023/09/10 08:22:55;;;;;;;3.42;1.85;;;;;;;18.02;60.45;101452.77;1683370;82;21471;-54
2023/09/10 08:26:02;;;;;;;7.42;3.33;;;;;;;18.10;60.23;101443.81;1678615;82;21384;-54
2023/09/10 08:29:08;;;;;;;3.95;2.72;;;;;;;18.11;59.99;101449.67;1676722;85;21732;-54
2023/09/10 08:32:15;;;;;;;5.00;3.00;;;;;;;18.18;59.96;101445.06;1682074;82;22506;-53
2023/09/10 08:35:21;;;;;;;3.95;2.42;;;;;;;18.30;59.90;101446.77;1645082;85;21215;-54
2023/09/10 08:38:27;;;;;;;4.00;1.80;;;;;;;18.40;59.72;101445.39;1679697;81;21721;-53
2023/09/10 08:41:38;;;;;;;3.62;2.00;;;;;;;18.41;59.37;101446.26;1654982;83;21747;-54
2023/09/10 08:44:43;;;;;;;4.47;2.75;;;;;;;18.35;59.21;101443.71;1618700;86;21448;-54
2023/09/10 08:47:51;;;;;;;5.00;2.72;;;;;;;18.37;59.18;101445.77;1647387;83;21748;-54
2023/09/10 08:50:57;;;;;;;11.78;2.85;;;;;;;18.37;59.04;101442.98;1656409;82;21354;-55
2023/09/10 08:54:06;;;;;;;5.40;3.10;;;;;;;18.33;58.89;101444.98;1658727;83;21269;-54
2023/09/10 08:57:12;;;;;;;6.75;2.75;;;;;;;18.36;58.85;101441.26;1704374;84;21708;-54
2023/09/10 09:00:22;;;;;;;8.73;2.87;;;;;;;18.42;58.72;101441.90;1710209;83;21231;-54
2023/09/10 09:03:29;;;;;;;4.35;2.80;;;;;;;18.43;58.52;101443.60;1694301;81;21386;-53
2023/09/10 09:06:37;;;;;;;6.58;2.87;;;;;;;18.41;58.29;101447.64;1700294;81;21284;-55
2023/09/10 09:09:46;;;;;;;5.92;2.80;;;;;;;18.41;58.21;101441.55;1710494;82;21799;-53
2023/09/10 09:12:53;;;;;;;3.60;2.70;;;;;;;18.47;58.17;101442.67;1708811;83;21411;-55
2023/09/10 09:16:00;;;;;;;7.53;5.17;;;;;;;18.55;58.05;101447.52;1710664;81;21763;-55
2023/09/10 09:19:07;;;;;;;5.85;3.70;;;;;;;18.60;57.95;101451.11;1691489;84;21357;-53
2023/09/10 09:22:16;;;;;;;8.18;3.47;;;;;;;18.62;57.88;101446.19;1652526;85;21405;-51
2023/09/10 09:25:22;;;;;;;8.23;3.80;;;;;;;18.66;57.87;101447.52;1682522;84;21378;-52
2023/09/10 09:28:29;;;;;;;12.10;5.15;;;;;;;18.75;57.87;101440.73;1682842;83;21476;-53
2023/09/10 09:31:36;;;;;;;9.70;4.85;;;;;;;18.80;57.73;101438.22;1685352;85;21405;-52
2023/09/10 09:34:42;;;;;;;6.47;3.87;;;;;;;18.91;57.87;101435.74;1685103;85;21457;-57
2023/09/10 09:37:49;;;;;;;12.60;4.08;;;;;;;19.05;57.69;101428.33;1677059;84;21259;-53
2023/09/10 09:40:55;;;;;;;8.25;3.80;;;;;;;19.12;57.52;101432.02;1681909;83;21233;-53
2023/09/10 09:44:04;;;;;;;3.95;3.30;;;;;;;19.19;57.41;101432.36;1673109;82;21244;-54
2023/09/10 09:47:11;;;;;;;7.85;4.12;;;;;;;19.27;57.26;101429.41;1682188;82;21226;-54
2023/09/10 09:50:17;;;;;;;8.53;3.55;;;;;;;19.37;57.20;101422.64;1683511;81;21238;-54
2023/09/10 09:53:23;;;;;;;9.05;4.22;;;;;;;19.42;57.12;101424.27;1657802;85;21229;-54
2023/09/10 09:56:31;;;;;;;9.63;4.12;;;;;;;19.45;56.96;101418.29;1684553;82;21252;-53
2023/09/10 09:59:39;;;;;;;8.05;3.47;;;;;;;19.53;56.99;101414.80;1665067;80;21652;-54
2023/09/10 10:02:45;;;;;;;9.23;3.98;;;;;;;19.69;56.98;101408.00;1664325;84;21366;-54
2023/09/10 10:05:58;;;;;;;6.85;3.58;;;;;;;19.86;56.92;101414.88;1684649;83;21212;-54
2023/09/10 10:09:03;;;;;;;7.65;5.03;;;;;;;19.86;56.65;101406.53;1666824;82;21242;-55
2023/09/10 10:12:11;;;;;;;9.08;4.92;;;;;;;19.82;56.48;101401.92;1656985;82;21950;-54
2023/09/10 10:15:11;;;;;;;6.12;4.08;;;;;;;19.75;56.34;101405.24;1654438;85;21313;-54
2023/09/10 10:18:08;;;;;;;;;;;;;;;19.70;56.34;101392.51;1658865;85;21275;-54
2023/09/10 10:21:12;;;;;;;;;;;;;;;19.77;56.39;101395.30;1670282;82;20706;-55
2023/09/10 10:24:18;;;;;;;6.58;3.30;;;;;;;19.79;56.27;101395.96;1673168;85;20298;-55
2023/09/10 10:27:27;;;;;;;7.87;4.17;;;;;;;19.77;56.22;101391.14;1673707;83;21312;-55
2023/09/10 10:30:35;;;;;;;7.37;3.85;;;;;;;19.77;56.19;101393.91;1684423;83;21435;-55
2023/09/10 10:33:43;;;;;;;5.50;4.08;;;;;;;19.85;56.16;101392.33;1685144;85;21398;-54
2023/09/10 10:37:10;;;;;;;6.95;4.17;;;;;;;19.82;55.99;101387.20;1600441;83;21289;-53
2023/09/10 10:40:33;;;;;;;6.97;3.37;;;;;;;19.81;55.89;101382.69;1640952;83;21243;-53
2023/09/10 10:43:45;;;;;;;6.42;3.47;;;;;;;19.87;55.90;101383.25;1633871;86;21283;-53
2023/09/10 10:46:51;;;;;;;6.53;4.53;;;;;;;19.91;55.81;101377.05;1675202;85;21370;-54
2023/09/10 10:49:59;;;;;;;9.28;4.45;;;;;;;19.98;55.70;101386.80;1666360;83;21247;-54
2023/09/10 10:53:27;;;;;;;7.42;4.03;;;;;;;20.00;55.59;101377.16;1674703;85;21394;-54
2023/09/10 10:56:33;;;;;;;7.78;4.62;;;;;;;20.06;55.60;101372.13;1637484;86;21791;-53
2023/09/10 10:59:38;;;;;;;5.33;4.10;;;;;;;20.12;55.47;101364.88;1675703;82;21373;-54
2023/09/10 11:02:43;;;;;;;5.08;3.75;;;;;;;20.10;55.29;101369.78;1681198;82;22336;-53
2023/09/10 11:06:08;;;;;;;5.80;4.12;;;;;;;19.99;55.08;101356.52;1686137;82;21358;-54
2023/09/10 11:09:16;;;;;;;4.80;3.80;;;;;;;20.02;55.20;101353.31;1677186;85;21398;-55
2023/09/10 11:12:22;;;;;;;8.00;4.10;;;;;;;20.26;55.39;101365.22;1665591;83;21483;-53
2023/09/10 11:15:29;;;;;;;6.00;3.90;;;;;;;20.38;55.14;101342.62;1656837;85;21290;-55
2023/09/10 11:18:48;;;;;;;6.08;4.10;;;;;;;20.46;55.13;101339.61;1656575;86;21770;-55
2023/09/10 11:22:09;;;;;;;6.87;4.05;;;;;;;20.61;55.09;101338.84;1654152;84;21262;-55
2023/09/10 11:25:15;;;;;;;5.58;3.55;;;;;;;20.62;54.79;101339.15;1653748;84;21282;-53
2023/09/10 11:29:01;;;;;;;4.33;3.45;;;;;;;20.69;54.74;101331.09;1656537;85;21891;-54
2023/09/10 11:32:10;;;;;;;5.20;3.60;;;;;;;20.75;54.56;101330.24;1653525;83;21279;-54
2023/09/10 11:35:28;;;;;;;6.33;4.00;;;;;;;20.62;54.25;101333.59;1630990;83;21237;-53
2023/09/10 11:38:37;;;;;;;5.10;3.80;;;;;;;20.43;54.04;101333.09;1653871;83;21240;-52
2023/09/10 11:41:44;;;;;;;5.70;3.95;;;;;;;20.29;54.04;101324.45;1657089;81;21242;-54
2023/09/10 11:44:50;;;;;;;5.67;4.65;;;;;;;20.21;54.01;101321.89;1691555;81;21458;-54
2023/09/10 11:47:57;;;;;;;7.30;3.87;;;;;;;20.11;53.95;101321.44;1694786;84;21355;-53
2023/09/10 11:51:04;;;;;;;4.70;3.58;;;;;;;20.11;54.04;101320.05;1684882;82;21234;-53
2023/09/10 11:54:16;;;;;;;8.30;3.80;;;;;;;20.22;54.12;101311.08;1671939;84;21918;-54
2023/09/10 11:57:23;;;;;;;8.43;4.17;;;;;;;20.23;54.04;101312.81;1670229;83;21824;-55
2023/09/10 12:00:30;;;;;;;5.25;3.75;;;;;;;20.25;54.01;101307.86;1666364;83;21812;-54
2023/09/10 12:03:35;;;;;;;5.22;3.80;;;;;;;20.25;53.93;101306.47;1668500;82;21290;-53
2023/09/10 12:06:44;;;;;;;6.37;4.67;;;;;;;20.36;53.96;101305.84;1681525;83;21369;-54
2023/09/10 12:09:49;;;;;;;6.33;3.95;;;;;;;20.43;53.95;101299.19;1672241;81;21744;-53
2023/09/10 12:13:01;;;;;;;7.55;4.05;;;;;;;20.58;53.93;101302.55;1678932;81;21318;-54
2023/09/10 12:16:03;;;;;;;5.87;3.90;;;;;;;20.65;53.78;101303.40;1676522;84;21351;-52
2023/09/10 12:19:09;;;;;;;5.92;3.85;;;;;;;20.64;53.50;101314.75;1679313;82;21853;-53
2023/09/10 12:22:18;;;;;;;5.03;3.87;;;;;;;20.64;53.36;101303.06;1661723;85;21213;-52
2023/09/10 12:25:23;;;;;;;6.95;4.15;;;;;;;20.58;53.17;101303.11;1682898;82;22060;-52
2023/09/10 12:28:30;;;;;;;5.90;4.12;;;;;;;20.52;53.09;101305.34;1685043;84;21456;-53
2023/09/10 12:31:37;;;;;;;5.58;3.95;;;;;;;20.48;53.02;101302.70;1684455;83;21739;-55
2023/09/10 12:34:42;;;;;;;5.72;4.35;;;;;;;20.42;53.02;101300.23;1684099;83;21203;-56
2023/09/10 12:37:58;;;;;;;6.58;3.75;;;;;;;20.44;53.03;101298.63;1684253;84;21943;-55
2023/09/10 12:41:02;;;;;;;;;;;;;;;20.43;52.92;101306.14;1684790;82;21477;-53
2023/09/10 12:44:10;;;;;;;8.58;3.85;;;;;;;20.38;52.88;101303.15;1673811;82;20483;-53
2023/09/10 12:47:17;;;;;;;5.37;3.35;;;;;;;20.41;52.90;101301.84;1684880;83;21421;-55
2023/09/10 12:50:25;;;;;;;5.35;3.62;;;;;;;20.40;52.82;101295.45;1684592;85;21437;-55
2023/09/10 12:53:29;;;;;;;6.97;4.25;;;;;;;20.35;52.66;101292.98;1684834;85;21848;-53
2023/09/10 12:56:41;;;;;;;5.33;3.62;;;;;;;20.31;52.70;101291.17;1665496;81;21258;-56
2023/09/10 12:59:48;;;;;;;6.05;3.87;;;;;;;20.27;52.66;101302.95;1657223;85;21234;-54
2023/09/10 13:02:55;;;;;;;6.20;3.10;;;;;;;20.23;52.56;101293.34;1655812;84;21278;-54
2023/09/10 13:06:01;;;;;;;5.97;3.70;;;;;;;20.25;52.58;101292.56;1651671;85;21255;-53
2023/09/10 13:09:09;;;;;;;6.95;3.70;;;;;;;20.27;52.57;101291.30;1653188;85;21226;-53
2023/09/10 13:12:14;;;;;;;4.42;3.55;;;;;;;20.31;52.58;101295.34;1656544;83;21247;-55
2023/09/10 13:15:20;;;;;;;6.33;3.45;;;;;;;20.31;52.51;101298.13;1653868;83;21795;-53
2023/09/10 13:18:26;;;;;;;5.87;3.45;;;;;;;20.22;52.45;101306.91;1679546;83;21810;-53
2023/09/10 13:21:32;;;;;;;9.30;3.77;;;;;;;20.12;52.37;101298.14;1686125;81;21606;-56
2023/09/10 13:24:39;;;;;;;6.75;3.90;;;;;;;20.05;52.42;101298.67;1668409;82;21279;-53
2023/09/10 13:27:46;;;;;;;4.67;3.00;;;;;;;20.06;52.43;101292.06;1680595;85;21402;-52
2023/09/10 13:30:53;;;;;;;5.50;3.77;;;;;;;20.01;52.33;101297.41;1662687;82;21214;-53
2023/09/10 13:33:59;;;;;;;5.17;3.45;;;;;;;19.97;52.34;101287.77;1664597;82;21214;-53
2023/09/10 13:37:07;;;;;;;5.03;3.83;;;;;;;19.99;52.42;101298.14;1674102;85;21256;-53
2023/09/10 13:40:16;;;;;;;6.62;3.22;;;;;;;19.94;52.39;101289.59;1677819;85;21259;-54
2023/09/10 13:43:22;;;;;;;7.78;3.50;;;;;;;19.93;52.41;101287.33;1670075;81;21223;-54
2023/09/10 13:46:27;;;;;;;7.25;3.67;;;;;;;19.92;52.40;101284.77;1676455;83;21203;-53
2023/09/10 13:49:33;;;;;;;7.75;3.95;;;;;;;19.91;52.41;101291.41;1682055;83;21744;-54
2023/09/10 13:52:41;;;;;;;8.75;5.40;;;;;;;19.89;52.40;101287.98;1649729;82;21341;-53
2023/09/10 13:55:46;;;;;;;9.10;6.15;;;;;;;19.86;52.41;101283.72;1656135;84;21233;-53
2023/09/10 13:58:54;;;;;;;7.22;4.53;;;;;;;19.86;52.39;101286.50;1672963;83;21739;-53
2023/09/10 14:02:01;;;;;;;9.15;4.22;;;;;;;19.83;52.37;101284.16;1685076;84;21374;-54
2023/09/10 14:05:11;;;;;;;6.55;3.90;;;;;;;19.81;52.34;101281.25;1682764;83;21374;-52
2023/09/10 14:08:18;;;;;;;9.08;4.30;;;;;;;19.76;52.31;101281.89;1649006;82;21243;-54
2023/09/10 14:11:25;;;;;;;5.65;3.52;;;;;;;19.72;52.31;101281.15;1670731;83;21430;-53
2023/09/10 14:14:31;;;;;;;6.78;3.55;;;;;;;19.69;52.31;101284.36;1683760;85;21450;-54
2023/09/10 14:17:39;;;;;;;5.47;3.12;;;;;;;19.65;52.34;101276.98;1681563;85;21228;-54
2023/09/10 14:20:45;;;;;;;5.58;3.75;;;;;;;19.59;52.35;101282.52;1667241;83;21753;-53
2023/09/10 14:23:51;;;;;;;6.35;4.50;;;;;;;19.56;52.42;101281.56;1670899;85;22286;-53
2023/09/10 14:26:56;;;;;;;5.95;4.10;;;;;;;19.53;52.44;101275.91;1664206;83;21217;-53
2023/09/10 14:30:03;;;;;;;5.78;4.03;;;;;;;19.53;52.51;101275.91;1680828;83;21398;-54
2023/09/10 14:33:10;;;;;;;10.38;4.33;;;;;;;19.55;52.58;101277.92;1672801;85;21240;-54